Startpagina
METAR-TAF:

METAR-TAF

Vliegvelden :

Dibrugarh, India

breedte: 27-29N, lengte: 095-01E, hoogte: 110 m

Actueel weer

Dit bericht is 1 uur en het 20 minuten geleden gemaakt, om 12:00 UTC
Weinig wind
Temperatuur 30°C
Vochtigheid 84%
Druk 999 hPa
Zicht: 6000 m
Verspreide wolken op 2000 ft
Weinig wolken op 2500 ft, Cumulonimbus.
Gebroken wolken op 10000 ft

METAR: VEMN 171200Z 00000KT 6000 SCT020 FEW025CB BKN100 30/27 Q0999 NOSIG

Tijdstip: 18:50 (13:20 UTC)


TAF: ontbreekt

Waarnemingen en weersverwachtingen van meer dan 4000 vliegvelden (METAR en TAF).

De beschikbare stations zijn de gele en rode punten op de kaart.

Ga met uw muis naar het station om de naam te zien.

Klik dan om waarnemingen en weersverwachtingen te zien.

kaart wijzigen: klik op de groene knoppen met een zwart kruis om in te zoomen, op de groene knop met een streepje om uit te zoomen of op de groene pijlen voor aangrenzende kaarten.


METAR-TAF: